createdAt,value
2019-06-01T00:01:03.853Z,17.20
2019-06-01T00:03:33.250Z,17.20
2019-06-01T00:06:02.531Z,17.20
2019-06-01T00:08:32.014Z,17.20
2019-06-01T00:11:01.275Z,17.20
2019-06-01T00:13:30.589Z,17.20
2019-06-01T00:15:59.893Z,17.20
2019-06-01T00:18:29.212Z,17.10
2019-06-01T00:20:58.560Z,17.10
2019-06-01T00:23:27.855Z,17.10
2019-06-01T00:25:57.236Z,17.00
2019-06-01T00:28:26.530Z,17.00
2019-06-01T00:30:55.785Z,16.90
2019-06-01T00:33:25.101Z,16.90
2019-06-01T00:35:54.354Z,16.90
2019-06-01T00:38:23.657Z,16.90
2019-06-01T00:40:53.104Z,16.90
2019-06-01T00:43:22.409Z,16.90
2019-06-01T00:45:53.029Z,16.80
2019-06-01T00:48:22.549Z,16.90
2019-06-01T00:50:53.103Z,16.80
2019-06-01T00:53:22.620Z,16.80
2019-06-01T00:55:51.999Z,16.80
2019-06-01T00:58:21.281Z,16.70
2019-06-01T01:00:52.014Z,16.70
2019-06-01T01:03:21.568Z,16.70
2019-06-01T01:05:50.848Z,16.60
2019-06-01T01:08:20.142Z,16.70
2019-06-01T01:10:49.494Z,16.60
2019-06-01T01:13:20.955Z,16.70
2019-06-01T01:15:51.364Z,16.70
2019-06-01T01:18:20.835Z,16.70
2019-06-01T01:20:50.120Z,16.70
2019-06-01T01:23:19.432Z,16.70
2019-06-01T01:25:48.839Z,16.70
2019-06-01T01:28:18.230Z,16.60
2019-06-01T01:31:02.909Z,16.60
2019-06-01T01:33:18.669Z,16.50
2019-06-01T01:35:48.117Z,16.50
2019-06-01T01:38:17.436Z,16.40
2019-06-01T01:40:47.897Z,16.40
2019-06-01T01:43:17.440Z,16.50
2019-06-01T01:45:46.804Z,16.40
2019-06-01T01:48:16.111Z,16.40
2019-06-01T01:50:45.498Z,16.30
2019-06-01T01:53:14.814Z,16.30
2019-06-01T01:55:44.168Z,16.30
2019-06-01T01:58:13.496Z,16.30
2019-06-01T02:00:45.080Z,16.20
2019-06-01T02:03:14.459Z,16.30
2019-06-01T02:05:43.776Z,16.30
2019-06-01T02:08:13.066Z,16.30
2019-06-01T02:10:42.335Z,16.30
2019-06-01T02:13:11.676Z,16.30
2019-06-01T02:15:41.919Z,16.20
2019-06-01T02:18:11.420Z,16.20
2019-06-01T02:20:40.773Z,16.20
2019-06-01T02:23:10.099Z,16.20
2019-06-01T02:25:39.358Z,16.20
2019-06-01T02:28:08.696Z,16.10
2019-06-01T02:30:37.982Z,16.10
2019-06-01T02:33:07.277Z,16.00
2019-06-01T02:35:36.611Z,16.00
2019-06-01T02:38:06.088Z,16.10
2019-06-01T02:40:35.502Z,16.00
2019-06-01T02:43:06.711Z,16.00
2019-06-01T02:45:36.254Z,16.00
2019-06-01T02:48:06.802Z,16.00
2019-06-01T02:50:36.300Z,16.00
2019-06-01T02:53:05.907Z,16.00
2019-06-01T02:55:35.214Z,16.00
2019-06-01T02:58:04.542Z,16.00
2019-06-01T03:01:11.131Z,16.00
2019-06-01T03:03:41.613Z,16.00
2019-06-01T03:06:12.831Z,16.10
2019-06-01T03:08:43.878Z,16.00
2019-06-01T03:11:15.787Z,16.00
2019-06-01T03:13:48.535Z,16.10
2019-06-01T03:16:21.166Z,16.10
2019-06-01T03:18:52.621Z,16.10
2019-06-01T03:21:24.601Z,16.20
2019-06-01T03:23:56.905Z,16.20
2019-06-01T03:26:28.658Z,16.20
2019-06-01T03:29:03.231Z,16.20
2019-06-01T03:31:31.827Z,16.20
2019-06-01T03:34:02.055Z,16.30
2019-06-01T03:36:32.198Z,16.30
2019-06-01T03:39:02.468Z,16.30
2019-06-01T03:41:32.405Z,16.30
2019-06-01T03:44:02.566Z,16.30
2019-06-01T03:46:32.102Z,16.30
2019-06-01T03:49:01.501Z,16.30
2019-06-01T03:51:30.781Z,16.30
2019-06-01T03:54:00.864Z,16.30
2019-06-01T03:56:30.542Z,16.30
2019-06-01T03:59:00.917Z,16.30
2019-06-01T04:01:30.402Z,16.30
2019-06-01T04:04:00.892Z,16.40
2019-06-01T04:06:30.388Z,16.40
2019-06-01T04:08:59.774Z,16.50
2019-06-01T04:11:29.169Z,16.60
2019-06-01T04:13:58.485Z,16.70
2019-06-01T04:16:27.962Z,16.70
2019-06-01T04:18:57.368Z,16.80
2019-06-01T04:21:26.636Z,16.80
2019-06-01T04:23:55.981Z,16.90
2019-06-01T04:26:25.369Z,16.90
2019-06-01T04:28:54.753Z,17.00
2019-06-01T04:31:24.080Z,17.00
2019-06-01T04:33:53.405Z,17.10
2019-06-01T04:36:22.725Z,17.10
2019-06-01T04:38:52.105Z,17.10
2019-06-01T04:41:21.366Z,17.10
2019-06-01T04:43:50.680Z,17.10
2019-06-01T04:46:20.069Z,17.20
2019-06-01T04:48:49.465Z,17.20
2019-06-01T04:51:18.861Z,17.20
2019-06-01T04:53:48.260Z,17.30
2019-06-01T04:56:17.577Z,17.30
2019-06-01T04:58:46.944Z,17.30
2019-06-01T05:01:16.335Z,17.40
2019-06-01T05:03:45.705Z,17.40
2019-06-01T05:06:15.468Z,17.40
2019-06-01T05:08:44.960Z,17.40
2019-06-01T05:11:15.571Z,17.40
2019-06-01T05:13:45.187Z,17.50
2019-06-01T05:16:14.942Z,17.60
2019-06-01T05:18:45.678Z,17.60
2019-06-01T05:21:15.249Z,17.70
2019-06-01T05:23:47.485Z,17.70
2019-06-01T05:26:17.151Z,17.70
2019-06-01T05:28:46.640Z,17.70
2019-06-01T05:31:24.341Z,17.70
2019-06-01T05:33:47.043Z,17.70
2019-06-01T05:36:16.368Z,17.70
2019-06-01T05:38:45.620Z,17.80
2019-06-01T05:41:15.045Z,17.90
2019-06-01T05:43:44.461Z,18.00
2019-06-01T05:46:14.053Z,18.10
2019-06-01T05:48:43.491Z,18.20
2019-06-01T05:51:15.583Z,18.30
2019-06-01T05:53:43.903Z,18.40
2019-06-01T05:56:14.640Z,18.50
2019-06-01T05:58:44.155Z,18.50
2019-06-01T06:01:14.682Z,18.60
2019-06-01T06:03:44.034Z,18.70
2019-06-01T06:06:13.783Z,18.80
2019-06-01T06:08:43.124Z,18.90
2019-06-01T06:11:12.894Z,18.90
2019-06-01T06:13:42.288Z,19.00
2019-06-01T06:16:11.684Z,19.00
2019-06-01T06:18:41.020Z,19.10
2019-06-01T06:21:10.392Z,19.20
2019-06-01T06:23:39.671Z,19.30
2019-06-01T06:26:09.013Z,19.40
2019-06-01T06:28:38.331Z,19.50
2019-06-01T06:31:07.618Z,19.50
2019-06-01T06:33:37.087Z,19.60
2019-06-01T06:36:06.510Z,19.60
2019-06-01T06:38:35.861Z,19.70
2019-06-01T06:41:05.203Z,19.70
2019-06-01T06:43:34.583Z,19.70
2019-06-01T06:46:03.863Z,19.80
2019-06-01T06:48:33.210Z,19.80
2019-06-01T06:51:02.628Z,19.80
2019-06-01T06:53:35.027Z,19.70
2019-06-01T06:56:03.031Z,19.70
2019-06-01T06:58:32.350Z,19.60
2019-06-01T07:01:01.715Z,19.60
2019-06-01T07:03:31.034Z,19.70
2019-06-01T07:06:00.363Z,19.80
2019-06-01T07:08:29.650Z,19.80
2019-06-01T07:10:59.009Z,19.90
2019-06-01T07:13:28.285Z,19.90
2019-06-01T07:15:57.680Z,19.90
2019-06-01T07:18:27.771Z,20.00
2019-06-01T07:20:57.331Z,20.00
2019-06-01T07:23:27.865Z,20.00
2019-06-01T07:25:57.426Z,20.10
2019-06-01T07:28:26.789Z,20.30
2019-06-01T07:30:56.065Z,20.40
2019-06-01T07:33:26.466Z,20.50
2019-06-01T07:35:55.982Z,20.60
2019-06-01T07:38:26.696Z,20.60
2019-06-01T07:40:56.124Z,20.60
2019-06-01T07:43:26.773Z,20.70
2019-06-01T07:45:56.198Z,20.70
2019-06-01T07:48:27.026Z,20.70
2019-06-01T07:50:56.566Z,20.80
2019-06-01T07:53:25.917Z,20.80
2019-06-01T07:55:55.250Z,20.80
2019-06-01T07:58:24.690Z,20.90
2019-06-01T08:00:53.927Z,20.90
2019-06-01T08:03:26.343Z,21.00
2019-06-01T08:05:54.241Z,21.10
2019-06-01T08:08:23.629Z,21.10
2019-06-01T08:10:52.933Z,21.10
2019-06-01T08:13:23.418Z,21.20
2019-06-01T08:15:52.864Z,21.30
2019-06-01T08:18:22.229Z,21.40
2019-06-01T08:20:51.662Z,21.50
2019-06-01T08:23:21.872Z,21.60
2019-06-01T08:25:51.232Z,21.60
2019-06-01T08:28:20.638Z,21.70
2019-06-01T08:30:49.922Z,21.60
2019-06-01T08:33:19.221Z,21.50
2019-06-01T08:35:48.605Z,21.40
2019-06-01T08:38:17.985Z,21.20
2019-06-01T08:40:47.385Z,21.10
2019-06-01T08:43:16.876Z,21.10
2019-06-01T08:45:46.177Z,21.10
2019-06-01T08:48:15.579Z,21.20
2019-06-01T08:50:46.209Z,21.20
2019-06-01T08:53:15.653Z,21.30
2019-06-01T08:55:44.932Z,21.40
2019-06-01T08:58:14.305Z,21.50
2019-06-01T09:00:43.558Z,21.60
2019-06-01T09:03:12.903Z,21.60
2019-06-01T09:05:42.221Z,21.60
2019-06-01T09:08:11.502Z,21.80
2019-06-01T09:10:40.818Z,21.90
2019-06-01T09:13:10.108Z,22.00
2019-06-01T09:15:39.550Z,22.00
2019-06-01T09:18:08.851Z,22.00
2019-06-01T09:20:39.047Z,22.00
2019-06-01T09:23:08.464Z,22.10
2019-06-01T09:25:37.831Z,22.10
2019-06-01T09:28:07.227Z,22.20
2019-06-01T09:30:36.626Z,22.30
2019-06-01T09:33:05.996Z,22.50
2019-06-01T09:35:52.662Z,22.60
2019-06-01T09:38:06.249Z,22.70
2019-06-01T09:40:37.175Z,22.80
2019-06-01T09:43:06.708Z,22.90
2019-06-01T09:45:36.350Z,22.90
2019-06-01T09:48:05.867Z,22.90
2019-06-01T09:50:35.517Z,23.00
2019-06-01T09:53:05.144Z,23.10
2019-06-01T09:55:34.623Z,23.20
2019-06-01T09:58:03.892Z,23.30
2019-06-01T10:00:34.711Z,23.30
2019-06-01T10:03:04.439Z,23.30
2019-06-01T10:05:34.820Z,23.30
2019-06-01T10:08:04.372Z,23.30
2019-06-01T10:10:33.950Z,23.30
2019-06-01T10:13:06.916Z,23.20
2019-06-01T10:15:34.495Z,23.20
2019-06-01T10:18:03.859Z,23.10
2019-06-01T10:20:33.264Z,23.00
2019-06-01T10:23:02.642Z,23.00
2019-06-01T10:25:32.464Z,23.10
2019-06-01T10:28:01.926Z,23.10
2019-06-01T10:30:31.691Z,23.10
2019-06-01T10:33:01.011Z,23.20
2019-06-01T10:35:30.735Z,23.30
2019-06-01T10:37:59.994Z,23.40
2019-06-01T10:40:29.293Z,23.50
2019-06-01T10:42:58.583Z,23.50
2019-06-01T10:45:27.866Z,23.50
2019-06-01T10:47:57.186Z,23.50
2019-06-01T10:50:26.564Z,23.50
2019-06-01T10:52:55.975Z,23.50
2019-06-01T10:55:25.330Z,23.50
2019-06-01T10:57:55.859Z,23.50
2019-06-01T11:00:37.501Z,23.60
2019-06-01T11:02:56.135Z,23.70
2019-06-01T11:05:25.454Z,23.80
2019-06-01T11:07:54.794Z,23.80
2019-06-01T11:10:24.177Z,23.90
2019-06-01T11:12:53.471Z,24.10
2019-06-01T11:15:22.840Z,24.60
2019-06-01T11:17:52.177Z,25.30
2019-06-01T11:20:21.477Z,26.10
2019-06-01T11:22:50.793Z,26.50
2019-06-01T11:25:20.289Z,26.30
2019-06-01T11:27:49.622Z,25.90
2019-06-01T11:30:19.430Z,25.60
2019-06-01T11:32:48.801Z,25.60
2019-06-01T11:35:18.154Z,25.60
2019-06-01T11:37:47.437Z,25.40
2019-06-01T11:40:16.778Z,25.20
2019-06-01T11:42:46.149Z,25.10
2019-06-01T11:45:15.586Z,25.40
2019-06-01T11:47:45.209Z,25.90
2019-06-01T11:50:14.970Z,26.40
2019-06-01T11:52:45.506Z,26.70
2019-06-01T11:55:15.226Z,26.80
2019-06-01T11:57:45.798Z,27.30
2019-06-01T12:00:18.551Z,27.90
2019-06-01T12:02:48.146Z,28.60
2019-06-01T12:05:17.546Z,29.20
2019-06-01T12:07:46.838Z,29.70
2019-06-01T12:10:16.507Z,30.00
2019-06-01T12:12:46.515Z,30.30
2019-06-01T12:15:15.951Z,30.60
2019-06-01T12:17:45.401Z,30.80
2019-06-01T12:20:15.441Z,31.10
2019-06-01T12:22:45.149Z,31.30
2019-06-01T12:25:15.106Z,31.40
2019-06-01T12:27:44.425Z,31.60
2019-06-01T12:30:14.039Z,31.70
2019-06-01T12:32:44.067Z,31.70
2019-06-01T12:35:13.996Z,31.50
2019-06-01T12:38:00.702Z,31.30
2019-06-01T12:40:14.556Z,30.90
2019-06-01T12:42:44.196Z,30.40
2019-06-01T12:45:22.435Z,30.30
2019-06-01T12:47:54.076Z,30.20
2019-06-01T12:50:19.960Z,30.60
2019-06-01T12:52:49.301Z,31.10
2019-06-01T12:55:18.723Z,31.30
2019-06-01T12:57:49.280Z,31.00
2019-06-01T13:00:19.560Z,30.50
2019-06-01T13:02:59.436Z,29.90
2019-06-01T13:05:19.896Z,29.40
2019-06-01T13:07:58.504Z,29.00
2019-06-01T13:10:20.113Z,28.70
2019-06-01T13:12:49.528Z,28.60
2019-06-01T13:15:18.964Z,28.50
2019-06-01T13:17:49.393Z,28.50
2019-06-01T13:20:18.875Z,28.70
2019-06-01T13:22:48.195Z,28.90
2019-06-01T13:25:17.592Z,29.20
2019-06-01T13:27:48.699Z,29.30
2019-06-01T13:30:17.841Z,29.10
2019-06-01T13:32:48.432Z,28.80
2019-06-01T13:35:18.098Z,28.80
2019-06-01T13:37:48.679Z,28.80
2019-06-01T13:40:18.242Z,28.70
2019-06-01T13:42:47.640Z,28.60
2019-06-01T13:45:17.010Z,28.50
2019-06-01T13:47:47.598Z,28.70
2019-06-01T13:50:16.895Z,28.80
2019-06-01T13:52:46.285Z,29.00
2019-06-01T13:55:15.903Z,29.10
2019-06-01T13:57:46.270Z,29.10
2019-06-01T14:00:29.231Z,28.80
2019-06-01T14:02:50.533Z,28.60
2019-06-01T14:05:17.673Z,28.50
2019-06-01T14:07:47.472Z,28.40
2019-06-01T14:10:17.795Z,28.40
2019-06-01T14:12:47.452Z,29.00
2019-06-01T14:15:17.071Z,29.80
2019-06-01T14:17:46.408Z,30.60
2019-06-01T14:20:15.711Z,30.60
2019-06-01T14:22:45.755Z,30.40
2019-06-01T14:25:15.496Z,30.40
2019-06-01T14:27:46.092Z,30.20
2019-06-01T14:30:15.755Z,29.90
2019-06-01T14:32:46.135Z,29.70
2019-06-01T14:35:15.570Z,29.90
2019-06-01T14:37:44.846Z,30.00
2019-06-01T14:40:14.969Z,29.90
2019-06-01T14:42:44.246Z,30.10
2019-06-01T14:45:13.687Z,30.30
2019-06-01T14:47:42.938Z,30.20
2019-06-01T14:50:12.263Z,30.10
2019-06-01T14:52:41.522Z,29.90
2019-06-01T14:55:10.922Z,29.60
2019-06-01T14:57:40.279Z,29.90
2019-06-01T15:00:10.259Z,30.40
2019-06-01T15:02:39.530Z,31.00
2019-06-01T15:05:09.594Z,31.40
2019-06-01T15:07:38.867Z,31.70
2019-06-01T15:10:08.663Z,31.60
2019-06-01T15:12:38.034Z,31.10
2019-06-01T15:15:08.667Z,30.50
2019-06-01T15:17:37.954Z,30.10
2019-06-01T15:20:08.363Z,29.90
2019-06-01T15:22:37.744Z,29.70
2019-06-01T15:25:07.800Z,29.70
2019-06-01T15:27:37.139Z,30.00
2019-06-01T15:30:07.337Z,30.20
2019-06-01T15:32:36.671Z,30.10
2019-06-01T15:35:06.262Z,30.20
2019-06-01T15:37:35.646Z,30.40
2019-06-01T15:40:05.721Z,30.30
2019-06-01T15:42:35.061Z,30.30
2019-06-01T15:45:04.858Z,30.20
2019-06-01T15:47:34.244Z,30.20
2019-06-01T15:50:03.519Z,30.20
2019-06-01T15:52:33.101Z,30.20
2019-06-01T15:55:02.894Z,30.20
2019-06-01T15:57:32.291Z,30.20
2019-06-01T16:00:02.995Z,30.40
2019-06-01T16:02:32.549Z,30.40
2019-06-01T16:05:01.825Z,30.50
2019-06-01T16:07:31.174Z,30.70
2019-06-01T16:10:07.613Z,30.90
2019-06-01T16:12:31.529Z,30.80
2019-06-01T16:15:02.133Z,30.80
2019-06-01T16:17:31.556Z,30.90
2019-06-01T16:20:02.180Z,31.10
2019-06-01T16:22:31.642Z,31.20
2019-06-01T16:25:00.965Z,31.40
2019-06-01T16:27:30.336Z,31.50
2019-06-01T16:30:01.528Z,31.60
2019-06-01T16:32:30.684Z,31.50
2019-06-01T16:35:01.043Z,31.50
2019-06-01T16:37:30.461Z,31.50
2019-06-01T16:40:07.449Z,31.50
2019-06-01T16:42:30.967Z,31.50
2019-06-01T16:45:01.589Z,31.50
2019-06-01T16:47:30.992Z,31.40
2019-06-01T16:50:01.716Z,31.30
2019-06-01T16:52:31.182Z,31.20
2019-06-01T16:55:00.594Z,31.20
2019-06-01T16:57:29.896Z,31.20
2019-06-01T17:00:00.671Z,31.20
2019-06-01T17:02:30.184Z,31.20
2019-06-01T17:05:00.622Z,31.20
2019-06-01T17:07:30.105Z,31.10
2019-06-01T17:10:18.476Z,31.10
2019-06-01T17:12:30.448Z,31.00
2019-06-01T17:15:00.842Z,31.00
2019-06-01T17:17:30.237Z,30.80
2019-06-01T17:19:59.540Z,30.70
2019-06-01T17:22:28.820Z,30.60
2019-06-01T17:24:58.217Z,30.50
2019-06-01T17:27:27.504Z,30.50
2019-06-01T17:29:58.017Z,30.40
2019-06-01T17:32:27.453Z,30.40
2019-06-01T17:34:58.511Z,30.30
2019-06-01T17:37:27.875Z,30.10
2019-06-01T17:39:57.275Z,29.90
2019-06-01T17:42:26.504Z,29.70
2019-06-01T17:44:55.844Z,29.40
2019-06-01T17:47:27.172Z,29.20
2019-06-01T17:49:56.211Z,29.10
2019-06-01T17:52:25.539Z,29.10
2019-06-01T17:54:54.847Z,29.10
2019-06-01T17:57:24.264Z,29.10
2019-06-01T17:59:53.827Z,29.10
2019-06-01T18:02:23.182Z,29.10
2019-06-01T18:04:52.576Z,29.00
2019-06-01T18:07:23.554Z,29.00
2019-06-01T18:09:53.195Z,28.90
2019-06-01T18:12:22.494Z,28.80
2019-06-01T18:14:51.959Z,28.70
2019-06-01T18:17:21.330Z,28.60
2019-06-01T18:19:50.702Z,28.40
2019-06-01T18:22:20.150Z,28.30
2019-06-01T18:24:49.547Z,28.10
2019-06-01T18:27:18.808Z,27.90
2019-06-01T18:29:49.630Z,27.70
2019-06-01T18:32:19.153Z,27.50
2019-06-01T18:34:48.560Z,27.40
2019-06-01T18:37:17.855Z,27.30
2019-06-01T18:39:48.222Z,27.20
2019-06-01T18:42:18.803Z,27.10
2019-06-01T18:44:49.890Z,27.00
2019-06-01T18:47:31.846Z,26.90
2019-06-01T18:49:50.256Z,26.70
2019-06-01T18:52:19.548Z,26.60
2019-06-01T18:54:48.898Z,26.50
2019-06-01T18:57:21.424Z,26.40
2019-06-01T18:59:49.215Z,26.30
2019-06-01T19:02:18.521Z,26.20
2019-06-01T19:04:47.741Z,26.10
2019-06-01T19:07:17.129Z,26.00
2019-06-01T19:09:46.533Z,25.80
2019-06-01T19:12:15.758Z,25.60
2019-06-01T19:14:45.121Z,25.50
2019-06-01T19:17:16.565Z,25.40
2019-06-01T19:19:46.010Z,25.30
2019-06-01T19:22:15.369Z,25.30
2019-06-01T19:24:44.725Z,25.10
2019-06-01T19:27:14.944Z,25.10
2019-06-01T19:29:44.273Z,24.90
2019-06-01T19:32:13.577Z,24.90
2019-06-01T19:34:43.139Z,24.80
2019-06-01T19:37:13.072Z,24.80
2019-06-01T19:39:42.766Z,24.60
2019-06-01T19:42:13.312Z,24.50
2019-06-01T19:44:42.790Z,24.50
2019-06-01T19:47:12.194Z,24.50
2019-06-01T19:49:43.844Z,24.40
2019-06-01T19:52:12.724Z,24.20
2019-06-01T19:54:42.086Z,24.10
2019-06-01T19:57:11.820Z,24.00
2019-06-01T19:59:41.178Z,24.00
2019-06-01T20:02:26.112Z,23.90
2019-06-01T20:04:41.529Z,23.90
2019-06-01T20:07:11.087Z,23.90
2019-06-01T20:09:40.485Z,23.80
2019-06-01T20:12:14.511Z,23.70
2019-06-01T20:14:40.734Z,23.70
2019-06-01T20:17:11.620Z,23.60
2019-06-01T20:19:41.132Z,23.50
2019-06-01T20:22:10.803Z,23.40
2019-06-01T20:24:40.385Z,23.40
2019-06-01T20:27:09.663Z,23.30
2019-06-01T20:29:39.061Z,23.20
2019-06-01T20:32:08.425Z,23.10
2019-06-01T20:34:37.761Z,23.10
2019-06-01T20:37:07.073Z,23.00
2019-06-01T20:39:36.364Z,22.90
2019-06-01T20:42:20.695Z,22.80
2019-06-01T20:44:36.608Z,22.70
2019-06-01T20:47:05.925Z,22.70
2019-06-01T20:49:35.221Z,22.60
2019-06-01T20:52:04.725Z,22.50
2019-06-01T20:54:34.064Z,22.40
2019-06-01T20:57:03.455Z,22.40
2019-06-01T20:59:32.760Z,22.30
2019-06-01T21:02:02.176Z,22.20
2019-06-01T21:04:33.557Z,22.20
2019-06-01T21:07:02.864Z,22.20
2019-06-01T21:09:32.220Z,22.20
2019-06-01T21:12:01.562Z,22.10
2019-06-01T21:14:30.981Z,22.10
2019-06-01T21:17:00.330Z,22.10
2019-06-01T21:19:29.643Z,22.10
2019-06-01T21:21:59.023Z,22.00
2019-06-01T21:24:28.396Z,22.00
2019-06-01T21:26:57.708Z,22.00
2019-06-01T21:29:27.047Z,22.00
2019-06-01T21:31:58.596Z,22.00
2019-06-01T21:34:27.940Z,22.00
2019-06-01T21:36:57.580Z,21.90
2019-06-01T21:39:26.944Z,21.80
2019-06-01T21:41:56.212Z,21.70
2019-06-01T21:44:25.776Z,21.70
2019-06-01T21:46:55.247Z,21.60
2019-06-01T21:49:24.536Z,21.60
2019-06-01T21:51:54.027Z,21.60
2019-06-01T21:54:24.538Z,21.50
2019-06-01T21:56:54.062Z,21.50
2019-06-01T21:59:23.386Z,21.50
2019-06-01T22:01:52.934Z,21.50
2019-06-01T22:04:23.057Z,21.40
2019-06-01T22:06:52.466Z,21.30
2019-06-01T22:09:21.739Z,21.20
2019-06-01T22:11:51.111Z,21.10
2019-06-01T22:14:21.337Z,21.10
2019-06-01T22:16:50.768Z,21.10
2019-06-01T22:19:20.177Z,21.10
2019-06-01T22:21:49.548Z,21.10
2019-06-01T22:24:19.733Z,21.00
2019-06-01T22:26:49.060Z,21.00
2019-06-01T22:29:18.395Z,21.10
2019-06-01T22:31:47.773Z,21.10
2019-06-01T22:34:18.499Z,21.00
2019-06-01T22:36:47.862Z,21.00
2019-06-01T22:39:19.277Z,20.90
2019-06-01T22:41:48.365Z,20.90
2019-06-01T22:44:17.985Z,20.90
2019-06-01T22:46:48.072Z,20.90
2019-06-01T22:49:17.444Z,20.90
2019-06-01T22:51:46.731Z,20.80
2019-06-01T22:54:16.044Z,20.80
2019-06-01T22:56:45.332Z,20.70
2019-06-01T22:59:14.748Z,20.60
2019-06-01T23:01:44.085Z,20.60
2019-06-01T23:04:13.419Z,20.60
2019-06-01T23:06:42.728Z,20.60
2019-06-01T23:09:12.025Z,20.50
2019-06-01T23:11:42.209Z,20.50
2019-06-01T23:14:11.557Z,20.50
2019-06-01T23:16:40.835Z,20.40
2019-06-01T23:19:10.164Z,20.40
2019-06-01T23:21:39.561Z,20.30
2019-06-01T23:24:08.829Z,20.30
2019-06-01T23:26:38.214Z,20.20
2019-06-01T23:29:07.619Z,20.20
2019-06-01T23:31:36.916Z,20.10
2019-06-01T23:34:06.187Z,20.10
2019-06-01T23:36:35.499Z,20.10
2019-06-01T23:39:07.240Z,20.00
2019-06-01T23:41:36.491Z,20.00
2019-06-01T23:44:11.937Z,19.90
2019-06-01T23:46:36.899Z,19.90
2019-06-01T23:49:06.212Z,19.90
2019-06-01T23:51:35.523Z,19.80
2019-06-01T23:54:04.810Z,19.80
2019-06-01T23:56:34.686Z,19.90
2019-06-01T23:59:04.338Z,19.90
